Latest Weather Observations for Yarrawonga

IDV60801

Issued at 3:35 pm EST Saturday 19 April 2014 (issued every 30 minutes, with the page automatically refreshed every 10 minutes)

About weather observations | Map of weather stations | Latest weather observations for VIC | Other Formats
Station Details ID: 081124 Name: YARRAWONGA Lat: -36.03 Lon: 146.03 Height: 128.9 m
Data from the previous 72 hours. | See also: Recent months at Yarrawonga
Date/Time
EST
Temp
°C
App
Temp
°C
Dew
Point
Rel
Hum
%
Delta-T
°C
Wind Press
QNH
hPa
Press
MSL
hPa
Rain
since 9 am
mm
Dir
 
Spd
km/h
Gust
km/h
Spd
kts
Gust
kts
19/03:30pm 17.2 13.1 6.4 49 5.3 S 17 22 9 12 1017.5 - 0.0
19/03:00pm 17.9 13.8 6.1 46 5.8 SSW 17 22 9 12 1017.6 1017.4 0.0
19/02:30pm 17.9 13.8 6.4 47 5.7 SW 17 26 9 14 1017.7 - 0.0
19/02:00pm 17.0 12.6 6.5 50 5.2 SW 19 28 10 15 1017.8 1017.6 0.0
19/01:30pm 17.0 12.8 5.9 48 5.4 SSW 17 32 9 17 1018.0 - 0.0
19/01:00pm 16.8 12.2 5.4 47 5.5 S 19 28 10 15 1018.4 1018.2 0.0
19/12:30pm 16.4 12.7 6.5 52 4.9 SSW 15 26 8 14 1019.0 - 0.0
19/12:00pm 16.3 12.3 6.7 53 4.7 SSW 17 26 9 14 1019.3 1019.2 0.0
19/11:30am 16.8 13.5 6.6 51 5.0 S 13 24 7 13 1019.7 - 0.0
19/11:00am 16.1 11.5 5.7 50 5.0 S 19 24 10 13 1019.9 1019.8 0.0
19/10:30am 15.6 11.0 5.8 52 4.7 S 19 30 10 16 1019.9 - 0.0
19/10:00am 14.1 10.3 7.4 64 3.3 SW 17 20 9 11 1020.0 1019.9 0.0
19/09:30am 13.3 10.0 8.2 71 2.5 SW 15 20 8 11 1020.0 - 0.0
19/09:00am 11.9 7.9 8.2 78 1.8 SW 19 22 10 12 1019.9 1019.8 0.0
19/08:30am 10.5 7.6 8.1 85 1.2 SW 13 17 7 9 1019.9 - 0.0
19/08:00am 8.8 6.1 7.4 91 0.7 SW 11 15 6 8 1019.7 1019.6 0.0
19/07:30am 7.3 5.2 6.7 96 0.3 SW 7 9 4 5 1019.4 - 0.0
19/07:00am 6.5 3.9 6.2 98 0.1 WSW 9 11 5 6 1018.8 1018.6 0.0
19/06:30am 6.1 3.4 5.8 98 0.1 WSW 9 11 5 6 1018.9 - 0.0
19/06:00am 5.9 3.6 5.5 97 0.2 SW 7 9 4 5 1018.7 1018.5 0.0
19/05:30am 6.7 4.1 6.1 96 0.3 WSW 9 11 5 6 1018.7 - 0.0
19/05:00am 6.6 4.0 5.9 95 0.3 WSW 9 11 5 6 1018.7 1018.5 0.0
19/04:30am 7.0 4.1 6.3 95 0.3 WSW 11 13 6 7 1018.6 - 0.0
19/04:00am 6.8 4.2 6.1 95 0.3 SW 9 11 5 6 1018.4 1018.2 0.0
19/03:30am 6.8 4.7 5.7 93 0.5 SW 6 9 3 5 1018.3 - 0.0
19/03:00am 7.9 5.4 6.4 90 0.7 WSW 9 13 5 7 1018.4 1018.2 0.0
19/02:30am 8.1 4.8 6.6 90 0.7 SW 13 15 7 8 1018.5 - 0.0
19/02:00am 8.3 5.8 6.6 89 0.8 SW 9 13 5 7 1018.8 1018.6 0.0
19/01:30am 8.4 5.2 7.0 91 0.7 SW 13 15 7 8 1018.7 - 0.0
19/01:00am 8.3 5.0 6.6 89 0.8 WSW 13 13 7 7 1018.8 1018.6 0.0
19/12:30am 9.5 6.3 6.9 84 1.2 W 13 15 7 8 1018.9 - 0.0
19/12:00am 9.7 6.6 7.1 84 1.2 WSW 13 15 7 8 1018.9 1018.7 0.0
 
Date/Time
EST
Temp
°C
App
Temp
°C
Dew
Point
Rel
Hum
%
Delta-T
°C
Wind Press
QNH
hPa
Press
MSL
hPa
Rain
since 9 am
mm
Dir
 
Spd
km/h
Gust
km/h
Spd
kts
Gust
kts
18/11:30pm 9.0 6.6 7.1 88 0.9 WSW 9 11 5 6 1018.9 - 0.0
18/11:00pm 9.6 6.9 7.5 87 1.0 SW 11 15 6 8 1019.1 1019.0 0.0
18/10:30pm 9.7 7.3 7.1 84 1.2 SW 9 11 5 6 1019.2 - 0.0
18/10:00pm 10.9 7.8 7.4 79 1.7 SW 13 17 7 9 1019.2 1019.1 0.0
18/09:30pm 11.2 7.8 7.5 78 1.8 SW 15 17 8 9 1019.0 - 0.0
18/09:00pm 11.9 8.4 7.4 74 2.2 SSW 15 20 8 11 1018.7 1018.5 0.0
18/08:30pm 11.5 9.0 8.0 79 1.7 SW 11 15 6 8 1018.5 - 0.0
18/08:00pm 11.8 9.3 8.1 78 1.8 SW 11 13 6 7 1018.2 1018.0 0.0
18/07:30pm 12.9 10.1 8.4 74 2.3 SSW 13 19 7 10 1017.8 - 0.0
18/07:00pm 13.8 10.5 9.5 75 2.2 SW 17 26 9 14 1017.5 1017.3 0.0
18/06:30pm 14.6 11.4 9.8 73 2.5 SSW 17 26 9 14 1017.1 - 0.0
18/06:00pm 15.5 12.8 10.5 72 2.7 SSW 15 22 8 12 1016.6 1016.4 0.0
18/05:30pm 15.9 12.2 10.0 68 3.1 SW 20 30 11 16 1016.3 - 0.0
18/05:00pm 17.2 12.3 10.1 63 3.8 SSW 26 33 14 18 1015.9 1015.7 0.0
18/04:30pm 17.8 13.3 11.4 66 3.5 SSW 26 41 14 22 1015.5 - 0.0
18/04:00pm 18.9 14.0 12.4 66 3.6 SW 30 41 16 22 1014.8 1014.7 0.0
18/03:30pm 20.8 16.0 10.3 51 5.7 W 26 41 14 22 1014.4 - 0.0
18/03:00pm 21.2 17.9 11.5 54 5.4 W 20 28 11 15 1014.5 1014.4 0.0
18/02:30pm 20.6 17.5 12.1 58 4.8 WSW 20 28 11 15 1014.7 - 0.0
18/02:00pm 21.3 18.0 11.6 54 5.4 WSW 20 30 11 16 1014.7 1014.6 0.0
18/01:30pm 22.4 19.4 11.8 51 6.0 WSW 19 24 10 13 1014.7 - 0.0
18/01:00pm 21.3 18.1 11.1 52 5.7 WSW 19 32 10 17 1015.2 1015.0 0.0
18/12:30pm 21.4 17.1 10.9 51 5.8 WSW 24 35 13 19 1015.5 - 0.0
18/12:00pm 21.4 20.4 12.3 56 5.2 WNW 9 17 5 9 1015.9 1015.7 0.0
18/11:30am 20.2 20.3 12.7 62 4.3 NW 4 7 2 4 1016.4 - 0.0
18/11:00am 18.8 18.6 11.9 64 3.8 NW 4 9 2 5 1016.8 1016.6 0.0
18/10:30am 17.6 17.1 11.9 69 3.1 NNE 6 9 3 5 1016.9 - 0.0
18/10:00am 16.8 16.3 11.9 73 2.7 NE 6 9 3 5 1017.0 1016.8 0.0
18/09:30am 15.8 15.9 11.4 75 2.4 N 2 4 1 2 1017.6 - 0.0
18/09:00am 14.5 14.2 11.5 82 1.6 ENE 4 6 2 3 1017.9 1017.7 0.0
18/08:30am 12.8 12.8 12.5 98 0.2 E 4 7 2 4 1017.7 - 0.0
18/08:00am 11.6 10.9 11.3 98 0.2 E 6 9 3 5 1017.6 1017.4 0.0
18/07:30am 10.9 9.8 10.6 98 0.2 E 7 9 4 5 1017.7 - 0.0
18/07:00am 10.4 9.1 10.1 98 0.2 ESE 7 11 4 6 1017.5 1017.3 0.0
18/06:30am 9.9 8.5 9.6 98 0.2 ESE 7 9 4 5 1017.4 - 0.0
18/06:00am 9.4 7.9 9.1 98 0.1 ESE 7 9 4 5 1017.3 1017.1 0.0
18/05:30am 9.4 7.5 9.1 98 0.1 ESE 9 9 5 5 1017.3 - 0.0
18/05:00am 9.3 7.9 9.0 98 0.1 E 6 6 3 3 1017.4 1017.2 0.0
18/04:30am 9.4 8.1 9.1 98 0.1 ESE 6 7 3 4 1017.4 - 0.0
18/04:00am 9.6 8.1 9.3 98 0.1 E 7 9 4 5 1017.3 1017.1 0.0
18/03:30am 9.8 8.4 9.5 98 0.2 E 7 9 4 5 1017.4 - 0.0
18/03:00am 9.9 8.7 9.6 98 0.2 E 6 6 3 3 1017.6 1017.4 0.0
18/02:30am 10.7 9.2 10.4 98 0.2 ESE 9 11 5 6 1017.9 - 0.0
18/02:00am 10.4 9.1 10.1 98 0.2 E 7 11 4 6 1018.0 1017.8 0.0
18/01:30am 10.3 9.6 10.0 98 0.2 ENE 4 6 2 3 1018.2 - 0.0
18/01:00am 10.2 9.5 9.9 98 0.2 NE 4 6 2 3 1018.4 1018.2 0.0
18/12:30am 11.1 10.6 10.8 98 0.2 NNE 4 6 2 3 1018.6 - 0.0
18/12:00am 11.0 10.5 10.7 98 0.2 N 4 4 2 2 1018.9 1018.7 0.0
 
Date/Time
EST
Temp
°C
App
Temp
°C
Dew
Point
Rel
Hum
%
Delta-T
°C
Wind Press
QNH
hPa
Press
MSL
hPa
Rain
since 9 am
mm
Dir
 
Spd
km/h
Gust
km/h
Spd
kts
Gust
kts
17/11:30pm 11.2 10.7 10.6 96 0.3 N 4 4 2 2 1019.1 - 0.0
17/11:00pm 11.6 11.8 10.7 94 0.5 CALM 0 0 0 0 1019.2 1019.1 0.0
17/10:30pm 11.6 11.7 10.2 91 0.7 CALM 0 0 0 0 1019.4 - 0.0
17/10:00pm 12.2 12.5 10.8 91 0.7 CALM 0 0 0 0 1019.7 1019.6 0.0
17/09:30pm 12.6 13.1 11.5 93 0.6 CALM 0 0 0 0 1019.8 - 0.0
17/09:00pm 12.2 12.4 10.4 89 0.9 CALM 0 0 0 0 1019.7 1019.6 0.0
17/08:30pm 13.0 13.0 11.2 89 1.0 S 2 2 1 1 1019.8 - 0.0
17/08:00pm 13.5 13.5 11.2 86 1.2 S 2 2 1 1 1019.8 1019.7 0.0
17/07:30pm 14.7 15.0 10.9 78 2.0 CALM 0 0 0 0 1019.6 - 0.0
17/07:00pm 16.3 15.9 11.0 71 2.8 WNW 4 6 2 3 1019.5 1019.4 0.0
17/06:30pm 17.2 16.4 11.0 67 3.4 W 6 6 3 3 1019.3 - 0.0
17/06:00pm 17.9 17.7 11.7 67 3.4 W 4 6 2 3 1019.0 1018.8 0.0
17/05:30pm 19.4 18.4 10.9 58 4.7 W 7 9 4 5 1019.0 - 0.0
17/05:00pm 21.0 19.1 10.5 51 5.7 WSW 11 15 6 8 1018.9 1018.7 0.0
17/04:30pm 22.2 21.8 9.7 45 6.8 WSW 2 6 1 3 1018.9 - 0.0
17/04:00pm 22.1 21.0 9.9 46 6.6 SW 6 9 3 5 1019.0 1018.8 0.0
17/03:30pm 22.2 20.8 9.7 45 6.8 SW 7 11 4 6 1019.1 - 0.0
17/03:00pm 22.5 20.7 9.6 44 7.0 WSW 9 15 5 8 1019.4 1019.3 0.0
17/02:30pm 22.6 21.4 9.7 44 7.0 SSW 6 11 3 6 1019.6 - 0.0
17/02:00pm 21.9 20.0 9.1 44 6.9 SSW 9 15 5 8 1019.8 1019.7 0.0
17/01:30pm 22.0 20.9 9.9 46 6.6 W 6 13 3 7 1019.9 - 0.0
17/01:00pm 21.6 19.9 9.8 47 6.4 SW 9 17 5 9 1020.3 1020.2 0.0
17/12:30pm 20.7 19.5 9.6 49 6.0 SW 6 11 3 6 1020.7 - 0.0
17/12:00pm 20.4 19.2 10.2 52 5.5 SW 7 17 4 9 1021.1 1021.0 0.0
17/11:30am 19.8 19.5 11.3 58 4.7 WNW 4 7 2 4 1021.3 - 0.0
17/11:00am 19.0 19.0 11.1 60 4.3 N 2 4 1 2 1021.6 1021.5 0.0
17/10:30am 18.3 18.4 11.4 64 3.8 WNW 2 6 1 3 1021.7 - 0.0
17/10:00am 17.8 18.0 11.8 68 3.3 N 2 6 1 3 1021.6 1021.5 0.0
17/09:30am 17.1 17.9 12.6 75 2.5 CALM 0 0 0 0 1021.7 - 0.0
17/09:00am 15.2 15.5 12.3 83 1.6 E 2 4 1 2 1021.6 1021.5 0.0
17/08:30am 13.2 13.3 11.4 89 1.0 SE 2 4 1 2 1021.7 - 0.0
17/08:00am 12.0 12.5 11.7 98 0.2 CALM 0 0 0 0 1021.5 1021.4 0.0
17/07:30am 10.0 10.0 9.7 98 0.2 CALM 0 0 0 0 1021.2 - 0.0
17/07:00am 8.1 7.6 7.8 98 0.1 CALM 0 0 0 0 1021.0 1020.9 0.0
17/06:30am 7.7 7.1 7.4 98 0.1 CALM 0 2 0 1 1020.6 - 0.0
17/06:00am 8.1 7.2 7.8 98 0.1 SE 2 4 1 2 1020.2 1020.1 0.0
17/05:30am 7.9 7.3 7.6 98 0.1 CALM 0 0 0 0 1020.1 - 0.0
17/05:00am 8.0 7.5 7.7 98 0.1 CALM 0 0 0 0 1019.9 1019.8 0.0
17/04:30am 8.4 7.2 8.1 98 0.1 SW 4 6 2 3 1019.7 - 0.0
17/04:00am 8.9 8.6 8.6 98 0.1 CALM 0 0 0 0 1019.4 1019.3 0.0
17/03:30am 8.6 8.2 8.2 97 0.2 CALM 0 0 0 0 1019.2 - 0.0
17/03:00am 9.0 8.7 8.6 97 0.2 CALM 0 0 0 0 1019.1 1019.0 0.0
17/02:30am 9.4 8.8 8.8 96 0.3 SE 2 4 1 2 1018.9 - 0.0
17/02:00am 9.8 8.4 8.9 94 0.4 E 6 7 3 4 1019.0 1018.8 0.0
17/01:30am 10.0 9.1 9.2 95 0.4 E 4 6 2 3 1019.1 - 0.0
17/01:00am 10.5 9.7 9.6 94 0.5 E 4 6 2 3 1019.2 1019.1 0.0
17/12:30am 11.1 10.4 10.2 94 0.5 SSE 4 4 2 2 1019.3 - 0.0
17/12:00am 11.6 11.4 10.5 93 0.6 WSW 2 4 1 2 1019.7 1019.6 0.0
 
Date/Time
EST
Temp
°C
App
Temp
°C
Dew
Point
Rel
Hum
%
Delta-T
°C
Wind Press
QNH
hPa
Press
MSL
hPa
Rain
since 9 am
mm
Dir
 
Spd
km/h
Gust
km/h
Spd
kts
Gust
kts
16/11:30pm 11.7 11.2 10.8 94 0.5 WSW 4 4 2 2 1019.8 - 0.0
16/11:00pm 12.0 11.5 10.9 93 0.6 W 4 6 2 3 1020.0 1019.9 0.0
16/10:30pm 12.0 11.5 10.7 92 0.7 W 4 4 2 2 1020.1 - 0.0
16/10:00pm 12.5 12.7 10.7 89 0.9 CALM 0 0 0 0 1020.2 1020.1 0.0
16/09:30pm 12.8 12.7 10.7 87 1.1 W 2 6 1 3 1020.3 - 0.0
16/09:00pm 13.9 13.0 11.2 84 1.4 WSW 7 7 4 4 1020.2 1020.1 0.0
16/08:30pm 14.2 13.3 11.4 83 1.5 WSW 7 7 4 4 1020.0 - 0.0
16/08:00pm 14.3 13.6 11.3 82 1.6 WSW 6 7 3 4 1019.8 1019.7 0.0
16/07:30pm 14.5 14.4 12.0 85 1.4 SW 4 6 2 3 1019.6 - 0.0
16/07:00pm 14.9 14.7 11.9 82 1.6 SSW 4 4 2 2 1019.5 1019.4 0.0
16/06:30pm 16.0 15.4 11.6 75 2.4 SW 6 6 3 3 1019.3 - 0.0
16/06:00pm 17.1 16.5 11.8 71 2.9 SSW 6 7 3 4 1019.0 1018.8 0.0
16/05:30pm 18.3 17.5 11.6 65 3.7 SW 7 7 4 4 1018.8 - 0.0
16/05:00pm 19.1 17.9 10.4 57 4.7 SSW 7 9 4 5 1018.7 1018.5 0.0
16/04:30pm 19.9 18.5 9.5 51 5.6 WSW 7 13 4 7 1018.6 - 0.0
16/04:00pm 21.2 19.4 9.4 47 6.3 W 9 15 5 8 1018.6 1018.4 0.0

Other Formats:

Comma delimited format used in spreadsheet applications
http://www.bom.gov.au/fwo/IDV60801/IDV60801.94862.axf

JavaScript Object Notation format (JSON) in row-major order
http://www.bom.gov.au/fwo/IDV60801/IDV60801.94862.json